Tiempo atmosférico en la estación meteorológica de Marbella, Málaga (2 m.)



Fecha
DESCASC
Temp. máxima en grados centígrados (hora)
DESCASC
Temp. mínima en grados centígrados (hora)
DESCASC
Temp. media en grados centígrados
DESCASC
Racha de viento máxima en m/sg (hora)
DESCASC
Velocidad máxima media en intervalos de 10 minutos(hora)
DESCASC
Precipitaciones diarias en mm
DESCASC
Precipitaciones de 00:00 a 06:00 en mm
DESCASC
Precipitaciones de 06:00 a 12:00 en mm
DESCASC
Precipitaciones de 12:00 a 18:00 en mm
DESCASC
Precipitaciones de 18:00 a 24:00 en mm
DESCASC
28-02-2021 17.4 (15:40) 15.6 (23:59) 16.5 15.56 (23:20) 12.78 (23:20) 1.2 0 0 0 1.2
27-02-2021 17.2 (12:50) 16 (08:00) 16.6 12.22 (23:10) 10.28 (23:20) 0 0 0 0 0
26-02-2021 17.7 (17:10) 15.7 (04:10) 16.7 13.33 (14:30) 10.83 (14:30) 0 0 0 0 0
25-02-2021 17.5 (14:30) 16.4 (00:00) 16.9 13.06 (08:50) 10.56 (09:30) 0 0 0 0 0
24-02-2021 18.4 (17:20) 16.1 (00:00) 17.3 13.89 (05:30) 11.39 (05:30) 0 0 0 0 0
23-02-2021 18 (10:20) 12.1 (00:00) 15.1 10 (04:30) 7.78 (19:10) 0 0 0 0 0
22-02-2021 19 (18:40) 10.2 (00:00) 14.6 10.83 (15:00) 8.06 (13:30) 0 0 0 0 0
21-02-2021 16.9 (12:10) 13.5 (00:00) 15.2 17.22 (16:00) 14.72 (16:10) 4.6 0 0 4.6 0
20-02-2021 17.8 (11:00) 13.3 (00:00) 15.5 8.61 (14:50) 6.11 (14:40) 0 0 0 0 0
19-02-2021 17.5 (17:20) 13.6 (00:00) 15.6 6.67 (02:20) 5.28 (15:10) 0 0 0 0 0
18-02-2021 17.8 (17:40) 12.2 (00:00) 15 6.11 (14:20) 5.28 (14:20) 0 0 0 0 0
17-02-2021 18.5 (17:00) 12.8 (00:00) 15.7 3.61 (13:50) 2.78 (14:00) 0 0 0 0 0
16-02-2021 17.5 (17:50) 13.2 (00:00) 15.3 5.28 (04:40) 4.44 (13:00) 0 0 0 0 0
15-02-2021 17.6 (16:40) 14.9 (00:00) 16.3 11.67 (09:50) 9.17 (08:10) 0 0 0 0 0
14-02-2021 18.7 (13:50) 12.2 (00:00) 15.5 13.06 (15:20) 8.61 (11:50) 0 0 0 0 0
13-02-2021 18.4 (18:10) 12.7 (00:00) 15.5 16.39 (04:00) 9.72 (04:00) 0 0 0 0 0
12-02-2021 20.8 (18:10) 14.8 (00:00) 17.8 10 (12:20) 7.78 (12:30) 0 0 0 0 0
11-02-2021 19.8 (16:50) 14.4 (00:00) 17.1 7.78 (00:10) 5.83 (00:10) 0 0 0 0 0
10-02-2021 17.7 (17:50) 15.7 (00:00) 16.7 17.5 (10:10) 14.17 (09:10) 0 0 0 0 0
09-02-2021 17.8 (16:50) 14.7 (00:00) 16.2 17.78 (20:00) 14.72 (20:00) 0 0 0 0 0
08-02-2021 16.8 (12:30) 14.2 (00:00) 15.5 22.5 (07:00) 16.94 (07:10) 6.4 1.2 5.2 0 0
07-02-2021 16.3 (13:20) 12.3 (00:00) 14.3 18.61 (16:10) 15.28 (16:00) 0 0 0 0 0
06-02-2021 16.6 (17:30) 13.7 (00:00) 15.2 15 (02:00) 12.5 (02:00) 0.2 0.2 0 0 0
05-02-2021 19.8 (12:40) 13.9 (00:00) 16.8 14.44 (19:50) 12.22 (19:50) 0 0 0 0 0
04-02-2021 18.5 (13:50) 13.8 (00:00) 16.2 5.28 (22:40) 4.17 (17:50) 0 0 0 0 0
03-02-2021 18.3 (16:10) 12.1 (00:00) 15.2 9.72 (19:10) 6.67 (19:20) 0 0 0 0 0
02-02-2021 19.6 (17:20) 14 (00:00) 16.8 8.61 (02:50) 4.44 (02:20) 0 0 0 0 0
01-02-2021 20 (16:40) 15.1 (00:00) 17.6 15.28 (13:30) 12.5 (13:20) 0 0 0 0 0

Gráficas

Temp. máximas Temp. mínimas Temp. medias Precipitaciones Rachas de viento máximas Velocidades máximas media en intervalos de 10 minutos

Datos horarios

Fecha y hora oficial Temperatura (ºC) Velocidad del viento (km/h) Dirección del viento Racha (km/h) Dirección de racha Precipitación (mm) Presión (hPa) Tendencia (hPa) Humedad (%)
2021-03-02 23:00:00 16 11 Noroeste 16 Noroeste 0 -- -- 82
2021-03-02 22:00:00 16.2 9 Noroeste 13 Oeste 0 -- -- 83
2021-03-02 21:00:00 16.8 11 Oeste 26 Oeste 0 -- -- 85
2021-03-02 20:00:00 17.5 22 Oeste 25 Oeste 0 -- -- 85
2021-03-02 19:00:00 17.6 20 Oeste 23 Oeste 0 -- -- 86
2021-03-02 18:00:00 17.9 20 Oeste 22 Oeste 0 -- -- 84
2021-03-02 17:00:00 18.1 16 Oeste 20 Oeste 0 -- -- 82
2021-03-02 16:00:00 18.3 14 Sudoeste 17 Sudoeste 0 -- -- 81
2021-03-02 15:00:00 18.3 16 Sudoeste 18 Oeste 0 -- -- 81
2021-03-02 14:00:00 18.3 15 Sudoeste 18 Sudoeste 0 -- -- 82
2021-03-02 13:00:00 18.2 13 Sudoeste 14 Sudoeste 0 -- -- 81
2021-03-02 12:00:00 18.3 11 Oeste 14 Sudoeste 0 -- -- 79
2021-03-02 11:00:00 17.7 12 Sudoeste 14 Oeste 0 -- -- 81
2021-03-02 10:00:00 17.8 9 Oeste 12 Oeste 0 -- -- 79
2021-03-02 09:00:00 16.6 6 Noroeste 8 Noroeste 0 -- -- 83
2021-03-02 08:00:00 16.3 5 Oeste 8 Noroeste 0 -- -- 84
2021-03-02 07:00:00 15.9 6 Noroeste 8 Noroeste 0 -- -- 85
2021-03-02 06:00:00 15.8 0 Calma 5 Noroeste 0 -- -- 85
2021-03-02 05:00:00 16 0 Calma 10 Nordeste 0 -- -- 83
2021-03-02 04:00:00 16.4 6 Nordeste 26 Este 0 -- -- 82
2021-03-02 03:00:00 16.8 21 Este 29 Este 0 -- -- 83
2021-03-02 02:00:00 17 17 Este 26 Este 0 -- -- 82
2021-03-02 01:00:00 17.1 18 Este 26 Este 0 -- -- 83
2021-03-02 00:00:00 16.7 3 Nordeste 9 Sudeste 0 -- -- 83
2021-03-01 23:00:00 16.2 2 Norte 9 Noroeste 0 -- -- 80
2021-03-01 22:00:00 15.9 2 Noroeste 5 Este 0 -- -- 81
2021-03-01 21:00:00 16.2 0 Calma 10 Noroeste 0 -- -- 77
2021-03-01 20:00:00 16 5 Noroeste 8 Noroeste 0 -- -- 78
2021-03-01 19:00:00 17.5 0 Calma 3 Noroeste 0 -- -- 75
2021-03-01 18:00:00 17.1 4 Este 14 Este 0 -- -- 73
2021-03-01 17:00:00 16.8 13 Este 21 Este 0 -- -- 69
2021-03-01 16:00:00 17.4 8 Nordeste 16 Nordeste 0 -- -- 66
2021-03-01 15:00:00 17.9 5 Este 10 Este 0 -- -- 68
2021-03-01 14:00:00 17.6 8 Sudeste 10 Este 0 -- -- 72
2021-03-01 13:00:00 18.2 3 Norte 10 Nordeste 0 -- -- 72
2021-03-01 12:00:00 17.7 0 Calma 8 Nordeste 0 -- -- 74
2021-03-01 11:00:00 17.5 5 Nordeste 14 Este 0 -- -- 77
2021-03-01 10:00:00 17 9 Nordeste 14 Nordeste 0 -- -- 77
2021-03-01 09:00:00 16.2 6 Nordeste 15 Nordeste 0 -- -- 85
2021-03-01 08:00:00 14.4 8 Norte 14 Norte 0 -- -- 90
2021-03-01 07:00:00 14 8 Norte 11 Norte 0 -- -- 92
2021-03-01 06:00:00 13.9 3 Norte 6 Norte 0 -- -- 92
2021-03-01 05:00:00 14.2 0 Calma 6 Norte 0 -- -- 92
2021-03-01 04:00:00 14.6 5 Norte 15 Nordeste 2.4 -- -- 91
2021-03-01 03:00:00 15.1 10 Nordeste 13 Nordeste 1.4 -- -- 91
2021-03-01 02:00:00 15.3 8 Nordeste 18 Nordeste 0 -- -- 89
2021-03-01 01:00:00 15.3 13 Nordeste 37 Nordeste 0.2 -- -- 89
2021-03-01 00:00:00 15.6 34 Nordeste 56 Este 1.2 -- -- 87
2021-02-28 23:00:00 16.4 40 Este 54 Este 0 -- -- 82
2021-02-28 22:00:00 16.9 30 Este 37 Este 0 -- -- 80
2021-02-28 21:00:00 16.8 17 Este 25 Este 0 -- -- 81
2021-02-28 20:00:00 16.8 15 Este 26 Nordeste 0 -- -- 82
2021-02-28 19:00:00 16.8 23 Nordeste 34 Este 0 -- -- 81
2021-02-28 18:00:00 17 29 Este 37 Este 0 -- -- 80
2021-02-28 17:00:00 17 32 Este 40 Este 0 -- -- 79
2021-02-28 16:00:00 17.3 32 Este 42 Este 0 -- -- 78
2021-02-28 15:00:00 17.1 37 Este 47 Este 0 -- -- 77
2021-02-28 14:00:00 16.7 37 Este 53 Este 0 -- -- 76
2021-02-28 13:00:00 16.6 45 Este 53 Este 0 -- -- 75
2021-02-28 12:00:00 16.4 40 Este 54 Este 0 -- -- 75
2021-02-28 11:00:00 16.4 42 Este 51 Este 0 -- -- 74
2021-02-28 10:00:00 16.4 39 Este 48 Este 0 -- -- 75
2021-02-28 09:00:00 16.2 37 Este 47 Este 0 -- -- 77
2021-02-28 08:00:00 16 38 Este 45 Este 0 -- -- 78
2021-02-28 07:00:00 16.1 34 Este 43 Este 0 -- -- 79
2021-02-28 06:00:00 16 30 Nordeste 40 Este 0 -- -- 79
2021-02-28 05:00:00 16 32 Nordeste 38 Nordeste 0 -- -- 80
2021-02-28 04:00:00 16.2 33 Este 39 Este 0 -- -- 80
2021-02-28 03:00:00 16.1 33 Este 41 Este 0 -- -- 80
2021-02-28 02:00:00 16.1 33 Este 41 Este 0 -- -- 80
2021-02-28 01:00:00 16.4 31 Este 42 Este 0 -- -- 81
2021-02-28 00:00:00 16.3 36 Este 44 Este 0 -- -- 80
2021-02-27 23:00:00 16.3 36 Este 44 Este 0 -- -- 82
2021-02-27 22:00:00 16.3 33 Este 42 Este 0 -- -- 80
2021-02-27 21:00:00 16.4 31 Este 40 Este 0 -- -- 80
2021-02-27 20:00:00 16.6 17 Nordeste 27 Nordeste 0 -- -- 76
2021-02-27 19:00:00 16.5 21 Nordeste 35 Nordeste 0 -- -- 75
2021-02-27 18:00:00 17 23 Nordeste 32 Nordeste 0 -- -- 70
2021-02-27 17:00:00 16.6 26 Este 32 Nordeste 0 -- -- 73
2021-02-27 16:00:00 16.7 23 Este 28 Este 0 -- -- 71
2021-02-27 15:00:00 16.9 22 Este 30 Este 0 -- -- 72
2021-02-27 14:00:00 16.9 22 Este 27 Nordeste 0 -- -- 72
2021-02-27 13:00:00 17.2 23 Nordeste 30 Nordeste 0 -- -- 71
2021-02-27 12:00:00 16.8 23 Nordeste 33 Nordeste 0 -- -- 74
2021-02-27 11:00:00 16.7 22 Nordeste 33 Nordeste 0 -- -- 74
2021-02-27 10:00:00 16.5 24 Nordeste 33 Nordeste 0 -- -- 73
2021-02-27 09:00:00 16.4 27 Este 33 Este 0 -- -- 76
2021-02-27 08:00:00 16 8 Nordeste 33 Este 0 -- -- 77
2021-02-27 07:00:00 16.4 27 Este 39 Este 0 -- -- 77
2021-02-27 06:00:00 16.3 31 Este 37 Este 0 -- -- 76
2021-02-27 05:00:00 16.5 30 Este 36 Este 0 -- -- 80
2021-02-27 04:00:00 16.4 33 Este 42 Este 0 -- -- 79
2021-02-27 03:00:00 16.5 31 Este 43 Este 0 -- -- 81
2021-02-27 02:00:00 16.5 31 Este 40 Este 0 -- -- 82
2021-02-27 01:00:00 16.6 30 Este 37 Este 0 -- -- 82
2021-02-27 00:00:00 16.7 28 Este 32 Este 0 -- -- 82
2021-02-26 23:00:00 16.6 26 Este 30 Este 0 -- -- 81
2021-02-26 22:00:00 16.8 22 Este 29 Este 0 -- -- 82
2021-02-26 21:00:00 16.8 22 Este 25 Este 0 -- -- 82
2021-02-26 20:00:00 16.8 19 Este 23 Nordeste 0 -- -- 81
2021-02-26 19:00:00 16.8 16 Nordeste 25 Este 0 -- -- 81
2021-02-26 18:00:00 17 24 Este 32 Este 0 -- -- 80
2021-02-26 17:00:00 17.6 25 Este 38 Este 0 -- -- 78
2021-02-26 16:00:00 17.4 30 Este 43 Nordeste 0 -- -- 79
2021-02-26 15:00:00 17.4 35 Este 48 Este 0 -- -- 78
2021-02-26 14:00:00 17.2 35 Nordeste 45 Nordeste 0 -- -- 79
2021-02-26 13:00:00 17.1 31 Nordeste 39 Este 0 -- -- 80
2021-02-26 12:00:00 17 32 Nordeste 44 Nordeste 0 -- -- 82
2021-02-26 11:00:00 16.8 32 Este 44 Este 0 -- -- 81
2021-02-26 10:00:00 16.7 37 Este 45 Este 0 -- -- 81
2021-02-26 09:00:00 16.9 30 Este 38 Este 0 -- -- 79
2021-02-26 08:00:00 17 29 Este 36 Este 0 -- -- 79
2021-02-26 07:00:00 17 13 Sudeste 19 Sudeste 0 -- -- 83
2021-02-26 06:00:00 16.7 9 Sudeste 19 Sudeste 0 -- -- 84
2021-02-26 05:00:00 15.7 0 Calma 5 Norte 0 -- -- 87
2021-02-26 04:00:00 15.8 0 Calma 5 Noroeste 0 -- -- 87
2021-02-26 03:00:00 16.3 0 Calma 10 Este 0 -- -- 87
2021-02-26 02:00:00 16.6 12 Nordeste 28 Este 0 -- -- 86
2021-02-26 01:00:00 16.7 23 Este 28 Este 0 -- -- 86
2021-02-26 00:00:00 16.8 18 Este 26 Este 0 -- -- 85
2021-02-25 23:00:00 16.9 15 Nordeste 19 Nordeste 0 -- -- 82
2021-02-25 22:00:00 16.7 10 Nordeste 18 Nordeste 0 -- -- 83
2021-02-25 21:00:00 16.7 10 Nordeste 18 Nordeste 0 -- -- 84
2021-02-25 20:00:00 16.8 15 Nordeste 24 Nordeste 0 -- -- 83
2021-02-25 19:00:00 16.9 16 Nordeste 25 Nordeste 0 -- -- 84
2021-02-25 18:00:00 17.1 21 Nordeste 27 Nordeste 0 -- -- 83
2021-02-25 17:00:00 17.2 24 Nordeste 30 Este 0 -- -- 83
2021-02-25 16:00:00 17.2 26 Nordeste 34 Este 0 -- -- 84
2021-02-25 15:00:00 17.3 28 Nordeste 33 Nordeste 0 -- -- 82
2021-02-25 14:00:00 17.2 25 Nordeste 31 Nordeste 0 -- -- 82
2021-02-25 13:00:00 16.9 25 Este 36 Este 0 -- -- 83
2021-02-25 12:00:00 16.8 31 Este 44 Este 0 -- -- 82
2021-02-25 11:00:00 16.7 35 Este 44 Este 0 -- -- 83
2021-02-25 10:00:00 16.7 34 Este 45 Este 0 -- -- 83
2021-02-25 09:00:00 16.7 36 Este 47 Este 0 -- -- 82
2021-02-25 08:00:00 16.6 36 Este 44 Este 0 -- -- 81
2021-02-25 07:00:00 16.6 31 Este 39 Este 0 -- -- 81
2021-02-25 06:00:00 16.6 29 Este 37 Este 0 -- -- 82
2021-02-25 05:00:00 16.5 32 Este 40 Este 0 -- -- 82
2021-02-25 04:00:00 16.6 31 Este 41 Nordeste 0 -- -- 82
2021-02-25 03:00:00 16.6 32 Este 40 Este 0 -- -- 83
2021-02-25 02:00:00 16.6 32 Este 41 Este 0 -- -- 81
2021-02-25 01:00:00 16.7 27 Este 40 Este 0 -- -- 82
2021-02-25 00:00:00 16.8 29 Este 39 Este 0 -- -- 83
2021-02-24 23:00:00 16.9 28 Este 35 Este 0 -- -- 80
2021-02-24 22:00:00 16.9 21 Este 32 Nordeste 0 -- -- 81
2021-02-24 21:00:00 16.9 23 Nordeste 35 Este 0 -- -- 81
2021-02-24 20:00:00 16.5 19 Nordeste 36 Nordeste 0 -- -- 79
2021-02-24 19:00:00 17 22 Nordeste 41 Nordeste 0 -- -- 78
2021-02-24 18:00:00 17.9 31 Nordeste 46 Nordeste 0 -- -- 76
2021-02-24 17:00:00 18 36 Nordeste 48 Nordeste 0 -- -- 76
2021-02-24 16:00:00 17.8 35 Nordeste 45 Este 0 -- -- 81
2021-02-24 15:00:00 17.8 32 Este 44 Este 0 -- -- 80
2021-02-24 14:00:00 17.5 36 Este 42 Este 0 -- -- 82
2021-02-24 13:00:00 17.2 36 Este 44 Este 0 -- -- 81
2021-02-24 12:00:00 17.1 35 Este 42 Este 0 -- -- 81
2021-02-24 11:00:00 17.4 36 Este 45 Este 0 -- -- 78
2021-02-24 10:00:00 16.9 37 Este 46 Este 0 -- -- 79
2021-02-24 09:00:00 16.4 36 Este 42 Este 0 -- -- 81
2021-02-24 08:00:00 16.3 30 Este 39 Este 0 -- -- 83
2021-02-24 07:00:00 16.1 26 Nordeste 42 Nordeste 0 -- -- 83
2021-02-24 06:00:00 16.3 37 Este 50 Este 0 -- -- 83
2021-02-24 05:00:00 16.4 36 Este 48 Este 0 -- -- 83
2021-02-24 04:00:00 16.5 35 Este 45 Este 0 -- -- 82
2021-02-24 03:00:00 16.5 36 Este 48 Este 0 -- -- 81
2021-02-24 02:00:00 16.7 34 Este 44 Este 0 -- -- 79
2021-02-24 01:00:00 16.7 31 Este 37 Este 0 -- -- 76
2021-02-24 00:00:00 16.5 27 Este 35 Este 0 -- -- 77
2021-02-23 23:00:00 15.5 14 Nordeste 22 Este 0 -- -- 79
2021-02-23 22:00:00 15.7 14 Nordeste 23 Nordeste 0 -- -- 78
2021-02-23 21:00:00 15.9 17 Nordeste 23 Nordeste 0 -- -- 75
2021-02-23 20:00:00 15.9 14 Nordeste 32 Nordeste 0 -- -- 73
2021-02-23 19:00:00 16.3 26 Nordeste 31 Nordeste 0 -- -- 72
2021-02-23 18:00:00 16.7 22 Nordeste 30 Este 0 -- -- 66
2021-02-23 17:00:00 16.6 24 Nordeste 30 Este 0 -- -- 65
2021-02-23 16:00:00 16.6 26 Este 32 Nordeste 0 -- -- 67
2021-02-23 15:00:00 16.5 22 Este 32 Nordeste 0 -- -- 59
2021-02-23 14:00:00 16.9 24 Nordeste 31 Nordeste 0 -- -- 56
2021-02-23 13:00:00 16.7 22 Este 31 Nordeste 0 -- -- 50
2021-02-23 12:00:00 16.9 23 Este 33 Nordeste 0 -- -- 43
2021-02-23 11:00:00 17.2 19 Este 30 Nordeste 0 -- -- 42
2021-02-23 10:00:00 17.9 12 Nordeste 21 Nordeste 0 -- -- 38
2021-02-23 09:00:00 16.1 11 Norte 19 Norte 0 -- -- 43
2021-02-23 08:00:00 13.5 14 Norte 22 Norte 0 -- -- 51
2021-02-23 07:00:00 13.4 15 Norte 26 Norte 0 -- -- 53
2021-02-23 06:00:00 13.7 19 Norte 33 Norte 0 -- -- 56
2021-02-23 05:00:00 13.7 18 Norte 36 Noroeste 0 -- -- 59
2021-02-23 04:00:00 13.7 18 Norte 35 Norte 0 -- -- 59
2021-02-23 03:00:00 13.4 11 Norte 22 Norte 0 -- -- 57
2021-02-23 02:00:00 12.5 2 Sudeste 14 Noroeste 0 -- -- 68
2021-02-23 01:00:00 12.9 11 Noroeste 18 Norte 0 -- -- 57
2021-02-23 00:00:00 13.3 12 Norte 18 Norte 0 -- -- 58
2021-02-22 23:00:00 13 10 Norte 15 Noroeste 0 -- -- 56
2021-02-22 22:00:00 12 9 Oeste 14 Oeste 0 -- -- 65
2021-02-22 21:00:00 13.6 0 Calma 11 Norte 0 -- -- 61
2021-02-22 20:00:00 14.5 6 Norte 11 Este 0 -- -- 61
2021-02-22 19:00:00 17.7 0 Calma 23 Sudoeste 0 -- -- 52
2021-02-22 18:00:00 16.8 19 Sudoeste 24 Sudoeste 0 -- -- 63
2021-02-22 17:00:00 16.9 17 Sudoeste 30 Sudoeste 0 -- -- 65
2021-02-22 16:00:00 16.5 21 Sudoeste 36 Sudoeste 0 -- -- 62
2021-02-22 15:00:00 15.9 28 Sudoeste 39 Sudoeste 0 -- -- 73
2021-02-22 14:00:00 15.5 28 Sudoeste 34 Sudoeste 0 -- -- 73
2021-02-22 13:00:00 14.9 23 Sudoeste 29 Sudoeste 0 -- -- 67
2021-02-22 12:00:00 14.5 17 Sudoeste 23 Sudoeste 0 -- -- 63
2021-02-22 11:00:00 14 13 Oeste 22 Oeste 0 -- -- 57
2021-02-22 10:00:00 15 4 Sur 7 Sudeste 0 -- -- 48
2021-02-22 09:00:00 12.8 3 Oeste 7 Este 0 -- -- 63
2021-02-22 08:00:00 10.2 2 Sur 9 Nordeste 0 -- -- 69
2021-02-22 07:00:00 11.1 4 Norte 15 Noroeste 0 -- -- 62
2021-02-22 06:00:00 11.5 7 Noroeste 16 Oeste 0 -- -- 63
2021-02-22 05:00:00 11.1 6 Oeste 11 Oeste 0 -- -- 70
2021-02-22 04:00:00 11.3 6 Noroeste 11 Noroeste 0 -- -- 69
2021-02-22 03:00:00 12.4 7 Noroeste 17 Noroeste 0 -- -- 65
2021-02-22 02:00:00 12.6 7 Noroeste 15 Noroeste 0 -- -- 65
2021-02-22 01:00:00 13.4 9 Noroeste 33 Oeste 0 -- -- 65
2021-02-22 00:00:00 15 19 Oeste 34 Sudoeste 0 -- -- 72
2021-02-21 23:00:00 14.8 27 Oeste 35 Oeste 0 -- -- 70
2021-02-21 22:00:00 14.3 17 Oeste 39 Oeste 0 -- -- 75
2021-02-21 21:00:00 13.5 8 Noroeste 42 Oeste 0 -- -- 69
2021-02-21 20:00:00 15.6 38 Oeste 52 Sudoeste 0 -- -- 69
2021-02-21 19:00:00 15.8 46 Oeste 56 Sudoeste 0 -- -- 72
2021-02-21 18:00:00 15.6 47 Sudoeste 58 Sudoeste 0 -- -- 79
2021-02-21 17:00:00 15.6 48 Sudoeste 62 Sudoeste 0 -- -- 79
2021-02-21 16:00:00 15.6 51 Sudoeste 62 Sudoeste 0 -- -- 79
2021-02-21 15:00:00 14.6 22 Oeste 55 Sudoeste 0.4 -- -- 85
2021-02-21 14:00:00 14.9 31 Oeste 58 Sudoeste 2.8 -- -- 87
2021-02-21 13:00:00 15.5 28 Sur 57 Sudoeste 1.4 -- -- 84
2021-02-21 12:00:00 16.7 7 Sudeste 12 Sur 0 -- -- 85
2021-02-21 11:00:00 16.4 6 Este 10 Este 0 -- -- 81
2021-02-21 10:00:00 16.1 0 Calma 5 Norte 0 -- -- 80
2021-02-21 09:00:00 15.3 3 Noroeste 7 Oeste 0 -- -- 79
2021-02-21 08:00:00 14.7 3 Norte 7 Este 0 -- -- 83
2021-02-21 07:00:00 15.2 4 Norte 8 Noroeste 0 -- -- 81
2021-02-21 06:00:00 15.7 0 Calma 10 Noroeste 0 -- -- 81
2021-02-21 05:00:00 15.5 8 Noroeste 12 Oeste 0 -- -- 84
2021-02-21 04:00:00 15.3 4 Noroeste 8 Norte 0 -- -- 86
2021-02-21 03:00:00 15.5 5 Noroeste 10 Nordeste 0 -- -- 85
2021-02-21 02:00:00 15.8 6 Norte 13 Nordeste 0 -- -- 86
2021-02-21 01:00:00 15.8 8 Nordeste 14 Nordeste 0 -- -- 86
2021-02-21 00:00:00 16.2 6 Nordeste 18 Nordeste 0 -- -- 85
2021-02-20 23:00:00 16.3 12 Nordeste 28 Nordeste 0 -- -- 84
2021-02-20 22:00:00 16.2 12 Nordeste 16 Nordeste 0 -- -- 82
2021-02-20 21:00:00 16.3 8 Nordeste 15 Nordeste 0 -- -- 81
2021-02-20 20:00:00 16.4 10 Nordeste 14 Nordeste 0 -- -- 79
2021-02-20 19:00:00 16.6 8 Nordeste 24 Este 0 -- -- 78
2021-02-20 18:00:00 16.9 19 Este 24 Este 0 -- -- 80
2021-02-20 17:00:00 17.1 16 Este 26 Nordeste 0 -- -- 74
2021-02-20 16:00:00 17.1 21 Este 25 Este 0 -- -- 80
2021-02-20 15:00:00 17.4 22 Este 31 Nordeste 0 -- -- 79
2021-02-20 14:00:00 17.8 16 Nordeste 23 Nordeste 0 -- -- 71
2021-02-20 13:00:00 17.6 12 Nordeste 24 Nordeste 0 -- -- 73
2021-02-20 12:00:00 17.3 19 Nordeste 27 Este 0 -- -- 76
2021-02-20 11:00:00 17.8 15 Nordeste 23 Nordeste 0 -- -- 77
2021-02-20 10:00:00 16.6 11 Nordeste 23 Nordeste 0 -- -- 81
2021-02-20 09:00:00 15.5 11 Nordeste 16 Nordeste 0 -- -- 85
2021-02-20 08:00:00 14.7 6 Norte 10 Norte 0 -- -- 87
2021-02-20 07:00:00 14.4 7 Norte 15 Nordeste 0 -- -- 88
2021-02-20 06:00:00 14.1 8 Norte 13 Nordeste 0 -- -- 89
2021-02-20 05:00:00 13.5 4 Norte 10 Norte 0 -- -- 90
2021-02-20 04:00:00 13.6 3 Nordeste 11 Nordeste 0 -- -- 89
2021-02-20 03:00:00 14.5 9 Nordeste 19 Nordeste 0 -- -- 89
2021-02-20 02:00:00 14.6 14 Nordeste 18 Nordeste 0 -- -- 90
2021-02-20 01:00:00 14.2 12 Nordeste 15 Nordeste 0 -- -- 89
2021-02-20 00:00:00 13.7 4 Norte 6 Norte 0 -- -- 89
2021-02-19 23:00:00 14.4 2 Noroeste 5 Norte 0 -- -- 89
2021-02-19 22:00:00 14.4 3 Nordeste 8 Noroeste 0 -- -- 88
2021-02-19 21:00:00 14.7 6 Noroeste 8 Noroeste 0 -- -- 87
2021-02-19 20:00:00 15.3 3 Noroeste 8 Nordeste 0 -- -- 85
2021-02-19 19:00:00 16.3 9 Nordeste 16 Este 0 -- -- 83
2021-02-19 18:00:00 17.3 14 Este 18 Este 0 -- -- 81
2021-02-19 17:00:00 17.3 15 Este 22 Este 0 -- -- 80
2021-02-19 16:00:00 17 19 Este 22 Este 0 -- -- 80
2021-02-19 15:00:00 16.6 19 Este 22 Este 0 -- -- 82
2021-02-19 14:00:00 16.1 11 Este 16 Este 0 -- -- 82
2021-02-19 13:00:00 16.1 11 Este 14 Este 0 -- -- 82
2021-02-19 12:00:00 15.7 10 Sudeste 12 Sudeste 0 -- -- 84
2021-02-19 11:00:00 15.2 7 Este 15 Este 0 -- -- 87
2021-02-19 10:00:00 15 9 Nordeste 13 Nordeste 0 -- -- 90
2021-02-19 09:00:00 14.8 5 Norte 10 Nordeste 0 -- -- 91
2021-02-19 08:00:00 14.8 8 Nordeste 17 Nordeste 0 -- -- 91
2021-02-19 07:00:00 14.9 6 Nordeste 15 Nordeste 0 -- -- 91
2021-02-19 06:00:00 14.9 12 Nordeste 18 Nordeste 0 -- -- 91
2021-02-19 05:00:00 14.7 13 Nordeste 19 Nordeste 0 -- -- 91
2021-02-19 04:00:00 14.4 12 Nordeste 20 Nordeste 0 -- -- 92
2021-02-19 03:00:00 14.6 16 Nordeste 24 Nordeste 0 -- -- 92
2021-02-19 02:00:00 14.9 15 Nordeste 22 Nordeste 0 -- -- 90
2021-02-19 01:00:00 15.2 17 Nordeste 21 Nordeste 0 -- -- 89
2021-02-19 00:00:00 15.3 12 Nordeste 15 Nordeste 0 -- -- 88
2021-02-18 23:00:00 15.6 10 Nordeste 14 Nordeste 0 -- -- 85
2021-02-18 22:00:00 15.7 3 Norte 9 Oeste 0 -- -- 83
2021-02-18 21:00:00 16 5 Oeste 14 Noroeste 0 -- -- 80
2021-02-18 20:00:00 16.6 11 Noroeste 14 Noroeste 0 -- -- 75
2021-02-18 19:00:00 17.4 12 Oeste 19 Oeste 0 -- -- 76
2021-02-18 18:00:00 17.8 15 Oeste 18 Oeste 0 -- -- 80
2021-02-18 17:00:00 17.5 15 Sudoeste 18 Sudoeste 0 -- -- 81
2021-02-18 16:00:00 17.3 15 Sudoeste 17 Sudoeste 0 -- -- 80
2021-02-18 15:00:00 17 15 Sudoeste 22 Sudoeste 0 -- -- 80
2021-02-18 14:00:00 16.6 15 Sudoeste 19 Sudoeste 0 -- -- 83
2021-02-18 13:00:00 16.3 15 Sudoeste 18 Sudoeste 0 -- -- 82
2021-02-18 12:00:00 15.9 14 Oeste 18 Oeste 0 -- -- 82
2021-02-18 11:00:00 15.6 13 Oeste 18 Oeste 0 -- -- 83
2021-02-18 10:00:00 15.8 8 Oeste 12 Oeste 0 -- -- 83
2021-02-18 09:00:00 14.4 6 Noroeste 14 Noroeste 0 -- -- 87
2021-02-18 08:00:00 12.3 9 Noroeste 16 Noroeste 0 -- -- 91
2021-02-18 07:00:00 12.9 9 Noroeste 14 Oeste 0 -- -- 91
2021-02-18 06:00:00 12.8 9 Noroeste 14 Oeste 0 -- -- 91
2021-02-18 05:00:00 12.9 7 Noroeste 12 Noroeste 0 -- -- 91
2021-02-18 04:00:00 12.5 0 Calma 6 Noroeste 0 -- -- 91
2021-02-18 03:00:00 12.8 5 Norte 10 Norte 0 -- -- 90
2021-02-18 02:00:00 13.5 3 Norte 5 Nordeste 0 -- -- 90
2021-02-18 01:00:00 13.2 4 Norte 8 Noroeste 0 -- -- 89
2021-02-18 00:00:00 13.5 6 Noroeste 9 Noroeste 0 -- -- 89
2021-02-17 23:00:00 13.7 5 Noroeste 9 Noroeste 0 -- -- 88
2021-02-17 22:00:00 14 5 Noroeste 8 Noroeste 0 -- -- 86
2021-02-17 21:00:00 14.2 7 Noroeste 9 Noroeste 0 -- -- 85
2021-02-17 20:00:00 15 5 Noroeste 13 Sudoeste 0 -- -- 83
2021-02-17 19:00:00 16.3 10 Sudoeste 13 Sudoeste 0 -- -- 81
2021-02-17 18:00:00 17.4 10 Sudoeste 12 Sudoeste 0 -- -- 78
2021-02-17 17:00:00 18.5 4 Sur 9 Sudeste 0 -- -- 73
2021-02-17 16:00:00 17.3 7 Este 10 Este 0 -- -- 79
2021-02-17 15:00:00 16.8 8 Este 12 Este 0 -- -- 80
2021-02-17 14:00:00 16.5 10 Este 13 Este 0 -- -- 80
2021-02-17 13:00:00 16.4 10 Este 12 Sudeste 0 -- -- 78
2021-02-17 12:00:00 17.5 3 Sudeste 9 Este 0 -- -- 75
2021-02-17 11:00:00 15.9 2 Sudeste 8 Sudeste 0 -- -- 81
2021-02-17 10:00:00 14.9 3 Noroeste 8 Oeste 0 -- -- 86
2021-02-17 09:00:00 13.8 0 Calma 5 Oeste 0 -- -- 89
2021-02-17 08:00:00 13.3 5 Noroeste 6 Noroeste 0 -- -- 89
2021-02-17 07:00:00 13.3 0 Calma 4 Norte 0 -- -- 89
2021-02-17 06:00:00 13.2 3 Norte 4 Norte 0 -- -- 88
2021-02-17 05:00:00 12.9 0 Calma 5 Noroeste 0 -- -- 88
2021-02-17 04:00:00 13.5 4 Noroeste 5 Noroeste 0 -- -- 86
2021-02-17 03:00:00 13.6 3 Norte 6 Noroeste 0 -- -- 86
2021-02-17 02:00:00 13.4 6 Norte 8 Noroeste 0 -- -- 85
2021-02-17 01:00:00 13.3 7 Norte 9 Norte 0 -- -- 84
2021-02-17 00:00:00 13.4 5 Norte 6 Norte 0 -- -- 84
2021-02-16 23:00:00 13.4 4 Norte 8 Noroeste 0 -- -- 85
2021-02-16 22:00:00 13.9 8 Norte 9 Noroeste 0 -- -- 84
2021-02-16 21:00:00 14.3 5 Noroeste 8 Noroeste 0 -- -- 82
2021-02-16 20:00:00 14.9 3 Noroeste 5 Sur 0 -- -- 77
2021-02-16 19:00:00 16.1 2 Sur 7 Sudeste 0 -- -- 74
2021-02-16 18:00:00 17.5 6 Sudeste 9 Sudeste 0 -- -- 69
2021-02-16 17:00:00 16.7 8 Sudeste 11 Sudeste 0 -- -- 72
2021-02-16 16:00:00 16.2 9 Este 15 Este 0 -- -- 70
2021-02-16 15:00:00 16.1 12 Este 18 Este 0 -- -- 72
2021-02-16 14:00:00 16.1 15 Este 19 Este 0 -- -- 73
2021-02-16 13:00:00 16 16 Este 19 Este 0 -- -- 72
2021-02-16 12:00:00 16.5 11 Nordeste 19 Nordeste 0 -- -- 70
2021-02-16 11:00:00 15.9 11 Nordeste 18 Norte 0 -- -- 74
2021-02-16 10:00:00 15.2 11 Nordeste 17 Nordeste 0 -- -- 76
2021-02-16 09:00:00 14.9 10 Nordeste 16 Nordeste 0 -- -- 76
2021-02-16 08:00:00 14.7 10 Nordeste 15 Nordeste 0 -- -- 76
2021-02-16 07:00:00 14.7 9 Nordeste 17 Norte 0 -- -- 76
2021-02-16 06:00:00 14.8 11 Nordeste 18 Nordeste 0 -- -- 77
2021-02-16 05:00:00 14.9 12 Nordeste 19 Nordeste 0 -- -- 78
2021-02-16 04:00:00 14.5 9 Norte 14 Norte 0 -- -- 80
2021-02-16 03:00:00 14.6 10 Norte 17 Nordeste 0 -- -- 81
2021-02-16 02:00:00 14.6 9 Nordeste 16 Nordeste 0 -- -- 82
2021-02-16 01:00:00 14.7 10 Nordeste 18 Nordeste 0 -- -- 83
2021-02-16 00:00:00 14.9 11 Nordeste 18 Nordeste 0 -- -- 82
2021-02-15 23:00:00 15.2 12 Nordeste 19 Nordeste 0 -- -- 82
2021-02-15 22:00:00 15.3 12 Nordeste 18 Nordeste 0 -- -- 80
2021-02-15 21:00:00 15.6 11 Nordeste 17 Nordeste 0 -- -- 79
2021-02-15 20:00:00 15.9 11 Nordeste 19 Nordeste 0 -- -- 77
2021-02-15 19:00:00 16.5 14 Nordeste 32 Nordeste 0 -- -- 74
2021-02-15 18:00:00 17.4 25 Este 32 Este 0 -- -- 74
2021-02-15 17:00:00 17.5 26 Este 35 Este 0 -- -- 74
2021-02-15 16:00:00 17.3 28 Este 37 Este 0 -- -- 75
2021-02-15 15:00:00 17.3 28 Este 37 Este 0 -- -- 76
2021-02-15 14:00:00 17 29 Nordeste 37 Nordeste 0 -- -- 76
2021-02-15 13:00:00 17.2 29 Nordeste 39 Este 0 -- -- 75
2021-02-15 12:00:00 17.1 28 Nordeste 39 Este 0 -- -- 77
2021-02-15 11:00:00 16.8 31 Nordeste 40 Nordeste 0 -- -- 76
2021-02-15 10:00:00 16.7 31 Nordeste 42 Nordeste 0 -- -- 78
2021-02-15 09:00:00 16.3 30 Este 40 Este 0 -- -- 81
2021-02-15 08:00:00 16.3 33 Este 39 Este 0 -- -- 80
2021-02-15 07:00:00 16.3 32 Este 38 Este 0 -- -- 81
2021-02-15 06:00:00 16.2 32 Este 38 Este 0 -- -- 81
2021-02-15 05:00:00 16.3 32 Este 38 Este 0 -- -- 81
2021-02-15 04:00:00 16.3 31 Este 40 Este 0 -- -- 81
2021-02-15 03:00:00 16.4 31 Este 36 Este 0 -- -- 81
2021-02-15 02:00:00 15.5 14 Nordeste 22 Nordeste 0 -- -- 80
2021-02-15 01:00:00 15.5 16 Nordeste 24 Nordeste 0 -- -- 79
2021-02-15 00:00:00 15.7 16 Nordeste 27 Nordeste 0 -- -- 78
2021-02-14 23:00:00 15.9 18 Nordeste 29 Nordeste 0 -- -- 76
2021-02-14 22:00:00 16 19 Nordeste 30 Nordeste 0 -- -- 75
2021-02-14 21:00:00 15.9 19 Nordeste 31 Nordeste 0 -- -- 82
2021-02-14 20:00:00 16.3 21 Nordeste 32 Nordeste 0 -- -- 81
2021-02-14 19:00:00 16.9 23 Nordeste 37 Nordeste 0 -- -- 76
2021-02-14 18:00:00 17.2 29 Nordeste 39 Nordeste 0 -- -- 71
2021-02-14 17:00:00 17.7 26 Nordeste 43 Nordeste 0 -- -- 61
2021-02-14 16:00:00 17.5 26 Nordeste 47 Nordeste 0 -- -- 57
2021-02-14 15:00:00 18.1 30 Nordeste 41 Nordeste 0 -- -- 50
2021-02-14 14:00:00 18.6 28 Nordeste 36 Nordeste 0 -- -- 51
2021-02-14 13:00:00 18.4 24 Nordeste 35 Este 0 -- -- 51
2021-02-14 12:00:00 15.8 30 Este 37 Este 0 -- -- 71
2021-02-14 11:00:00 16.5 23 Nordeste 29 Este 0 -- -- 64
2021-02-14 10:00:00 16.4 18 Nordeste 25 Nordeste 0 -- -- 52
2021-02-14 09:00:00 16.3 4 Nordeste 9 Este 0 -- -- 68
2021-02-14 08:00:00 12.5 0 Calma 5 Nordeste 0 -- -- 77
2021-02-14 07:00:00 13.2 3 Este 12 Este 0 -- -- 79
2021-02-14 06:00:00 13.3 6 Norte 13 Norte 0 -- -- 81
2021-02-14 05:00:00 14.4 10 Norte 14 Norte 0 -- -- 83
2021-02-14 04:00:00 15.1 12 Nordeste 22 Nordeste 0 -- -- 80
2021-02-14 03:00:00 13.5 11 Nordeste 15 Nordeste 0 -- -- 71
2021-02-14 02:00:00 12.3 4 Nordeste 12 Oeste 0 -- -- 63
2021-02-14 01:00:00 12.4 3 Nordeste 9 Este 0 -- -- 59
2021-02-14 00:00:00 12.7 0 Calma 8 Noroeste 0 -- -- 54
2021-02-13 23:00:00 14.2 6 Noroeste 12 Noroeste 0 -- -- 50
2021-02-13 22:00:00 15.5 9 Noroeste 14 Oeste 0 -- -- 45
2021-02-13 21:00:00 15.2 12 Oeste 19 Noroeste 0 -- -- 48
2021-02-13 20:00:00 15.7 10 Oeste 19 Noroeste 0 -- -- 52
2021-02-13 19:00:00 16.3 12 Oeste 20 Oeste 0 -- -- 48
2021-02-13 18:00:00 18.2 14 Oeste 20 Oeste 0 -- -- 41
2021-02-13 17:00:00 16.3 18 Oeste 20 Oeste 0 -- -- 56
2021-02-13 16:00:00 16.4 13 Oeste 18 Oeste 0 -- -- 64
2021-02-13 15:00:00 17.4 13 Oeste 15 Sudoeste 0 -- -- 78
2021-02-13 14:00:00 17.4 10 Oeste 13 Sudoeste 0 -- -- 75
2021-02-13 13:00:00 16.7 11 Sudoeste 14 Sudoeste 0 -- -- 73
2021-02-13 08:00:00 -- -- -- -- -- -- -- -- --
2021-02-13 07:00:00 -- -- -- -- -- -- -- -- --
2021-02-13 06:00:00 -- -- -- -- -- -- -- -- --
2021-02-13 05:00:00 16.1 29 Norte 59 Norte 0 -- -- 54
2021-02-13 04:00:00 16.6 35 Norte 59 Norte 0 -- -- 51
2021-02-13 03:00:00 16.3 27 Noroeste 41 Noroeste 0 -- -- 51
2021-02-13 02:00:00 15.8 16 Noroeste 33 Noroeste 0 -- -- 55
2021-02-13 01:00:00 16.1 12 Noroeste 20 Noroeste 0 -- -- 54
2021-02-13 00:00:00 16 6 Noroeste 17 Norte 0 -- -- 58
2021-02-12 23:00:00 16.2 6 Oeste 16 Noroeste 0 -- -- 62
2021-02-12 22:00:00 15.5 6 Noroeste 13 Norte 0 -- -- 59
2021-02-12 21:00:00 16.9 9 Norte 23 Norte 0 -- -- 51
2021-02-12 20:00:00 17.5 15 Norte 25 Norte 0 -- -- 50
2021-02-12 19:00:00 18.1 11 Norte 16 Oeste 0 -- -- 52
2021-02-12 18:00:00 20.5 8 Este 17 Sudeste 0 -- -- 45
2021-02-12 17:00:00 20.2 5 Sur 15 Oeste 0 -- -- 52
2021-02-12 16:00:00 18.1 14 Oeste 23 Oeste 0 -- -- 61
2021-02-12 15:00:00 18.5 9 Sudoeste 15 Sudoeste 0 -- -- 72
2021-02-12 14:00:00 19.9 6 Oeste 32 Oeste 0 -- -- 72
2021-02-12 13:00:00 19 24 Oeste 36 Sudoeste 0 -- -- 81
2021-02-12 12:00:00 17.9 22 Oeste 32 Oeste 0 -- -- 86
2021-02-12 11:00:00 17.8 23 Oeste 30 Sudoeste 0 -- -- 84
2021-02-12 10:00:00 17.2 14 Oeste 32 Sudoeste 0 -- -- 85
2021-02-12 09:00:00 16.4 8 Oeste 19 Sudoeste 0 -- -- 87
2021-02-12 08:00:00 14.9 7 Noroeste 10 Noroeste 0 -- -- 89
2021-02-12 07:00:00 15.1 5 Noroeste 10 Sudoeste 0 -- -- 90
2021-02-12 06:00:00 15.5 4 Sudoeste 10 Sur 0 -- -- 92
2021-02-12 05:00:00 15.5 3 Noroeste 8 Sudoeste 0 -- -- 90
2021-02-12 04:00:00 16.2 4 Sudoeste 14 Sur 0 -- -- 90
2021-02-12 03:00:00 16.1 6 Oeste 12 Oeste 0 -- -- 91
2021-02-12 02:00:00 15.8 2 Sudeste 9 Oeste 0 -- -- 91
2021-02-12 01:00:00 15.7 8 Oeste 9 Oeste 0 -- -- 91
2021-02-12 00:00:00 16.6 4 Oeste 6 Oeste 0 -- -- 90
2021-02-11 23:00:00 16.8 4 Oeste 15 Sudoeste 0 -- -- 89
2021-02-11 22:00:00 17.4 5 Sur 12 Sur 0 -- -- 87
2021-02-11 21:00:00 17.4 5 Sudeste 6 Sudeste 0 -- -- 86
2021-02-11 20:00:00 18 3 Oeste 9 Sudoeste 0 -- -- 85
2021-02-11 19:00:00 18.2 5 Oeste 12 Oeste 0 -- -- 85
2021-02-11 18:00:00 19.3 11 Oeste 12 Oeste 0 -- -- 82
2021-02-11 17:00:00 19.7 9 Oeste 13 Oeste 0 -- -- 81
2021-02-11 16:00:00 19.5 8 Oeste 12 Oeste 0 -- -- 83
2021-02-11 15:00:00 18.7 6 Oeste 15 Oeste 0 -- -- 84
2021-02-11 14:00:00 18.1 11 Oeste 15 Sudoeste 0 -- -- 82
2021-02-11 13:00:00 17.5 15 Sudoeste 17 Sudoeste 0 -- -- 86
2021-02-11 12:00:00 19.3 9 Oeste 16 Oeste 0 -- -- 78
2021-02-11 11:00:00 17.8 6 Oeste 9 Sudoeste 0 -- -- 84
2021-02-11 10:00:00 17.3 6 Sudoeste 8 Sudoeste 0 -- -- 84
2021-02-11 09:00:00 16.3 5 Sudoeste 9 Sudoeste 0 -- -- 88
2021-02-11 08:00:00 14.9 5 Noroeste 9 Oeste 0 -- -- 89
2021-02-11 07:00:00 14.7 4 Oeste 9 Noroeste 0 -- -- 89
2021-02-11 06:00:00 14.6 2 Oeste 6 Oeste 0 -- -- 89
2021-02-11 05:00:00 15.4 5 Noroeste 10 Oeste 0 -- -- 88
2021-02-11 04:00:00 15.6 6 Oeste 17 Oeste 0 -- -- 88
2021-02-11 03:00:00 15.8 10 Oeste 16 Oeste 0 -- -- 87
2021-02-11 02:00:00 15.9 11 Oeste 14 Oeste 0 -- -- 87
2021-02-11 01:00:00 16.8 12 Oeste 28 Oeste 0 -- -- 86
2021-02-11 00:00:00 17.1 22 Oeste 40 Oeste 0 -- -- 85
2021-02-10 23:00:00 17.4 23 Oeste 41 Sudoeste 0 -- -- 83
2021-02-10 22:00:00 17.4 33 Oeste 54 Sudoeste 0 -- -- 84
2021-02-10 21:00:00 17.3 41 Sudoeste 52 Sudoeste 0 -- -- 86
2021-02-10 20:00:00 17.7 46 Sudoeste 59 Sudoeste 0 -- -- 84
2021-02-10 19:00:00 17.6 46 Sudoeste 58 Sudoeste 0 -- -- 87
2021-02-10 18:00:00 17.7 41 Sudoeste 55 Sudoeste 0 -- -- 87
2021-02-10 17:00:00 17.4 42 Sudoeste 58 Sudoeste 0 -- -- 90
2021-02-10 16:00:00 17.5 44 Sudoeste 57 Sudoeste 0 -- -- 89
2021-02-10 15:00:00 17.3 40 Sudoeste 55 Sudoeste 0 -- -- 91
2021-02-10 14:00:00 17 44 Sudoeste 61 Sudoeste 0 -- -- 92
2021-02-10 13:00:00 16.9 47 Sudoeste 58 Oeste 0 -- -- 91
2021-02-10 12:00:00 17 44 Sudoeste 57 Sudoeste 0 -- -- 88
2021-02-10 11:00:00 17.3 48 Sudoeste 63 Sudoeste 0 -- -- 84
2021-02-10 10:00:00 17.1 46 Sudoeste 62 Sudoeste 0 -- -- 85
2021-02-10 09:00:00 17 47 Sudoeste 60 Sudoeste 0 -- -- 87
2021-02-10 08:00:00 16.2 37 Sudoeste 58 Sudoeste 0 -- -- 92
2021-02-10 07:00:00 16.4 48 Sudoeste 58 Sudoeste 0 -- -- 90
2021-02-10 06:00:00 15.7 30 Sudoeste 53 Sudoeste 0 -- -- 92
2021-02-10 05:00:00 16.3 42 Sudoeste 49 Sudoeste 0 -- -- 85
2021-02-10 04:00:00 16.8 37 Sudoeste 51 Sudoeste 0 -- -- 82
2021-02-10 03:00:00 16.1 46 Sudoeste 57 Sudoeste 0 -- -- 90
2021-02-10 02:00:00 16.7 41 Sudoeste 54 Sudoeste 0 -- -- 87
2021-02-10 01:00:00 16.9 40 Sudoeste 54 Sudoeste 0 -- -- 86
2021-02-10 00:00:00 16.9 41 Sudoeste 54 Sudoeste 0 -- -- 86
2021-02-09 23:00:00 16.6 40 Sudoeste 58 Sudoeste 0 -- -- 86
2021-02-09 22:00:00 16.5 39 Sudoeste 54 Sudoeste 0 -- -- 88
2021-02-09 21:00:00 16.6 38 Sudoeste 57 Sudoeste 0 -- -- 87
2021-02-09 20:00:00 16.3 53 Sudoeste 64 Sudoeste 0 -- -- 86
2021-02-09 19:00:00 17.1 41 Sudoeste 51 Sudoeste 0 -- -- 84
2021-02-09 18:00:00 17.3 46 Sudoeste 58 Sudoeste 0 -- -- 81
2021-02-09 17:00:00 17.8 40 Sudoeste 49 Sudoeste 0 -- -- 81
2021-02-09 16:00:00 17.2 33 Sudoeste 58 Sudoeste 0 -- -- 84
2021-02-09 15:00:00 17 45 Sudoeste 57 Sudoeste 0 -- -- 85
2021-02-09 14:00:00 16.6 32 Sudoeste 38 Sudoeste 0 -- -- 88
2021-02-09 13:00:00 16.5 35 Sudoeste 46 Sudoeste 0 -- -- 88
2021-02-09 12:00:00 16.3 23 Sudoeste 40 Sudoeste 0 -- -- 87
2021-02-09 11:00:00 15.7 35 Sudoeste 41 Sudoeste 0 -- -- 86
2021-02-09 10:00:00 15.7 32 Sudoeste 47 Sudoeste 0 -- -- 85
2021-02-09 09:00:00 15.6 36 Sudoeste 54 Sudoeste 0 -- -- 86
2021-02-09 08:00:00 15.6 43 Sudoeste 53 Sudoeste 0 -- -- 85
2021-02-09 07:00:00 15.8 38 Sudoeste 49 Sudoeste 0 -- -- 82
2021-02-09 06:00:00 15.8 33 Sudoeste 45 Sudoeste 0 -- -- 81
2021-02-09 05:00:00 15.9 31 Oeste 41 Oeste 0 -- -- 73
2021-02-09 04:00:00 14.7 5 Noroeste 31 Oeste 0 -- -- 78
2021-02-09 03:00:00 15.7 28 Oeste 44 Oeste 0 -- -- 80
2021-02-09 02:00:00 15.4 21 Oeste 37 Oeste 0 -- -- 84
2021-02-09 01:00:00 15.8 36 Sudoeste 43 Sudoeste 0 -- -- 81
2021-02-09 00:00:00 15.3 12 Oeste 46 Sudoeste 0 -- -- 82
2021-02-08 23:00:00 16.1 39 Sudoeste 45 Sudoeste 0 -- -- 81
2021-02-08 22:00:00 16.2 37 Sudoeste 56 Sudoeste 0 -- -- 81
2021-02-08 21:00:00 16.3 46 Sudoeste 53 Sudoeste 0 -- -- 79
2021-02-08 20:00:00 16.5 48 Sudoeste 53 Sudoeste 0 -- -- 76
2021-02-08 19:00:00 16.6 39 Sudoeste 47 Sudoeste 0 -- -- 75
2021-02-08 18:00:00 16.3 38 Sudoeste 46 Sudoeste 0 -- -- 71
2021-02-08 17:00:00 16.1 39 Sudoeste 49 Sudoeste 0 -- -- 66
2021-02-08 16:00:00 16.4 37 Sudoeste 50 Oeste 0 -- -- 66
2021-02-08 15:00:00 16.2 36 Sudoeste 46 Sudoeste 0 -- -- 65
2021-02-08 14:00:00 16 35 Sudoeste 43 Sudoeste 0 -- -- 64
2021-02-08 13:00:00 16.1 25 Sudoeste 45 Sudoeste 0 -- -- 60
2021-02-08 12:00:00 16.2 34 Sudoeste 47 Sudoeste 0.2 -- -- 80
2021-02-08 11:00:00 15.6 31 Sudoeste 39 Sudoeste 0 -- -- 84
2021-02-08 10:00:00 15.6 12 Oeste 56 Sudoeste 0.2 -- -- 90
2021-02-08 09:00:00 15.1 30 Oeste 74 Sudoeste 4 -- -- 93
2021-02-08 08:00:00 15.5 57 Sudoeste 79 Sudoeste 0.4 -- -- 90
2021-02-08 07:00:00 15.3 61 Sudoeste 81 Sudoeste 0.4 -- -- 90
2021-02-08 06:00:00 15.1 54 Sudoeste 70 Sudoeste 0.2 -- -- 91
2021-02-08 05:00:00 14.7 53 Sudoeste 70 Sudoeste 0.4 -- -- 93
2021-02-08 04:00:00 14.5 48 Sudoeste 62 Sudoeste 0.6 -- -- 93
2021-02-08 03:00:00 14.5 50 Sudoeste 61 Sudoeste 0 -- -- 92
2021-02-08 02:00:00 14.2 30 Sudoeste 60 Oeste 0 -- -- 91
2021-02-08 01:00:00 14.9 54 Oeste 73 Oeste 0 -- -- 84
2021-02-08 00:00:00 15.4 54 Sudoeste 66 Sudoeste 0 -- -- 81
2021-02-07 23:00:00 15.4 43 Sudoeste 53 Sudoeste 0 -- -- 79
2021-02-07 22:00:00 15.6 39 Sudoeste 55 Sudoeste 0 -- -- 78
2021-02-07 21:00:00 15.4 42 Sudoeste 54 Sudoeste 0 -- -- 77
2021-02-07 20:00:00 15.4 45 Sudoeste 62 Oeste 0 -- -- 73
2021-02-07 19:00:00 15 48 Oeste 63 Oeste 0 -- -- 67
2021-02-07 18:00:00 14.7 50 Oeste 66 Oeste 0 -- -- 64
2021-02-07 17:00:00 15.1 40 Sudoeste 67 Sudoeste 0 -- -- 65
2021-02-07 16:00:00 15.3 55 Sudoeste 64 Sudoeste 0 -- -- 70
2021-02-07 15:00:00 15.6 44 Sudoeste 57 Oeste 0 -- -- 70
2021-02-07 14:00:00 16.2 45 Sudoeste 54 Sudoeste 0 -- -- 72
2021-02-07 13:00:00 16 43 Sudoeste 53 Sudoeste 0 -- -- 76
2021-02-07 12:00:00 15.8 37 Sudoeste 46 Sudoeste 0 -- -- 78
2021-02-07 11:00:00 15.6 17 Oeste 24 Oeste 0 -- -- 76
2021-02-07 10:00:00 14.6 10 Sudoeste 14 Sudoeste 0 -- -- 79
2021-02-07 09:00:00 12.6 7 Oeste 12 Oeste 0 -- -- 85
2021-02-07 08:00:00 12.5 10 Oeste 17 Oeste 0 -- -- 85
2021-02-07 07:00:00 12.5 9 Noroeste 16 Oeste 0 -- -- 86
2021-02-07 06:00:00 13 8 Noroeste 37 Oeste 0 -- -- 85
2021-02-07 05:00:00 13.9 30 Oeste 40 Sudoeste 0 -- -- 85
2021-02-07 04:00:00 14.1 35 Sudoeste 42 Sudoeste 0 -- -- 84
2021-02-07 03:00:00 14.3 35 Sudoeste 46 Sudoeste 0 -- -- 83
2021-02-07 02:00:00 14.7 39 Sudoeste 47 Sudoeste 0 -- -- 82
2021-02-07 01:00:00 13.6 13 Oeste 34 Sudoeste 0 -- -- 86
2021-02-07 00:00:00 13.7 12 Oeste 37 Sudoeste 0 -- -- 83
2021-02-06 23:00:00 15.2 33 Sudoeste 40 Sudoeste 0 -- -- 84
2021-02-06 22:00:00 15.2 28 Oeste 40 Sudoeste 0 -- -- 84
2021-02-06 21:00:00 15.6 31 Oeste 38 Sudoeste 0 -- -- 83
2021-02-06 20:00:00 15.9 32 Sudoeste 43 Sudoeste 0 -- -- 81
2021-02-06 19:00:00 16 30 Sudoeste 44 Sudoeste 0 -- -- 81
2021-02-06 18:00:00 16.3 32 Sudoeste 38 Sudoeste 0 -- -- 80
2021-02-06 17:00:00 16.2 21 Sudoeste 30 Sudoeste 0 -- -- 82
2021-02-06 16:00:00 16.1 27 Sudoeste 44 Sudoeste 0 -- -- 81
2021-02-06 15:00:00 16 34 Sudoeste 42 Sudoeste 0 -- -- 82
2021-02-06 14:00:00 15.8 35 Sudoeste 49 Sudoeste 0 -- -- 82
2021-02-06 13:00:00 15.5 45 Sudoeste 53 Sudoeste 0 -- -- 81
2021-02-06 12:00:00 16 30 Sudoeste 37 Sudoeste 0 -- -- 81
2021-02-06 11:00:00 15.8 26 Sudoeste 38 Sudoeste 0 -- -- 81
2021-02-06 10:00:00 15.6 32 Sudoeste 40 Sudoeste 0 -- -- 81
2021-02-06 09:00:00 15.3 35 Sudoeste 43 Sudoeste 0 -- -- 81
2021-02-06 08:00:00 15.3 36 Sudoeste 47 Sudoeste 0 -- -- 82
2021-02-06 07:00:00 15.2 41 Sudoeste 50 Sudoeste 0 -- -- 83
2021-02-06 06:00:00 15.3 38 Sudoeste 45 Sudoeste 0 -- -- 85
2021-02-06 05:00:00 15.6 29 Sudoeste 37 Sudoeste 0 -- -- 83
2021-02-06 04:00:00 15.7 33 Sudoeste 49 Sudoeste 0.2 -- -- 86
2021-02-06 03:00:00 15.9 35 Sudoeste 50 Sudoeste 0 -- -- 82
2021-02-06 02:00:00 16.5 45 Sudoeste 54 Sudoeste 0 -- -- 79
2021-02-06 01:00:00 16.3 32 Oeste 39 Oeste 0 -- -- 81
2021-02-06 00:00:00 16.2 32 Oeste 41 Sudoeste 0 -- -- 80
2021-02-05 23:00:00 16.6 30 Sudoeste 38 Sudoeste 0 -- -- 77
2021-02-05 22:00:00 16.5 26 Oeste 46 Sudoeste 0 -- -- 77
2021-02-05 21:00:00 16.5 26 Oeste 47 Sudoeste 0 -- -- 75
2021-02-05 20:00:00 16.6 42 Sudoeste 52 Sudoeste 0 -- -- 74
2021-02-05 19:00:00 16.8 36 Sudoeste 42 Sudoeste 0 -- -- 78
2021-02-05 18:00:00 16.9 32 Sudoeste 38 Sudoeste 0 -- -- 81
2021-02-05 17:00:00 17.3 33 Oeste 44 Sudoeste 0 -- -- 79
2021-02-05 16:00:00 17.3 31 Sudoeste 36 Sudoeste 0 -- -- 86
2021-02-05 15:00:00 17.6 16 Oeste 21 Oeste 0 -- -- 85
2021-02-05 14:00:00 17.5 15 Sudoeste 27 Sur 0 -- -- 86
2021-02-05 13:00:00 18.9 13 Sudeste 22 Norte 0 -- -- 68
2021-02-05 12:00:00 19.7 7 Noroeste 13 Noroeste 0 -- -- 68
2021-02-05 11:00:00 17.3 9 Oeste 15 Oeste 0 -- -- 80
2021-02-05 10:00:00 16 10 Oeste 14 Oeste 0 -- -- 85
2021-02-05 09:00:00 14.1 3 Noroeste 5 Noroeste 0 -- -- 87
2021-02-05 08:00:00 14.1 4 Noroeste 6 Noroeste 0 -- -- 87
2021-02-05 07:00:00 14.2 0 Calma 5 Noroeste 0 -- -- 86
2021-02-05 06:00:00 14.7 3 Oeste 4 Noroeste 0 -- -- 85
2021-02-05 05:00:00 14.8 0 Calma 5 Nordeste 0 -- -- 85
2021-02-05 04:00:00 15.1 4 Norte 8 Norte 0 -- -- 81
2021-02-05 03:00:00 15.4 5 Nordeste 9 Nordeste 0 -- -- 76
2021-02-05 02:00:00 15.9 9 Nordeste 18 Nordeste 0 -- -- 72
2021-02-05 01:00:00 16.6 12 Nordeste 22 Nordeste 0 -- -- 65
2021-02-05 00:00:00 17.4 11 Norte 17 Norte 0 -- -- 70
2021-02-04 23:00:00 16.9 0 Calma 19 Nordeste 0 -- -- 77
2021-02-04 22:00:00 15.5 5 Nordeste 7 Nordeste 0 -- -- 85
2021-02-04 21:00:00 14.9 0 Calma 5 Sudoeste 0 -- -- 85
2021-02-04 20:00:00 15.2 0 Calma 6 Sudoeste 0 -- -- 88
2021-02-04 19:00:00 16.4 3 Sudoeste 14 Este 0 -- -- 88
2021-02-04 18:00:00 17.1 14 Este 17 Este 0 -- -- 84
2021-02-04 17:00:00 17.6 9 Este 12 Este 0 -- -- 83
2021-02-04 16:00:00 17.6 5 Este 8 Este 0 -- -- 82
2021-02-04 15:00:00 17.5 9 Este 14 Este 0 -- -- 82
2021-02-04 14:00:00 17.7 14 Este 17 Nordeste 0 -- -- 81
2021-02-04 13:00:00 17.1 9 Sudoeste 12 Oeste 0 -- -- 84
2021-02-04 12:00:00 16.3 13 Oeste 14 Oeste 0 -- -- 85
2021-02-04 11:00:00 17.2 2 Sudeste 4 Sudeste 0 -- -- 83
2021-02-04 10:00:00 15.4 3 Nordeste 6 Noroeste 0 -- -- 88
2021-02-04 09:00:00 14.4 4 Norte 9 Nordeste 0 -- -- 87
2021-02-04 08:00:00 14.1 5 Nordeste 10 Este 0 -- -- 88
2021-02-04 07:00:00 13.8 4 Nordeste 10 Nordeste 0 -- -- 88
2021-02-04 06:00:00 14.4 8 Nordeste 10 Nordeste 0 -- -- 89
2021-02-04 05:00:00 14.6 2 Oeste 6 Sudoeste 0 -- -- 89
2021-02-04 04:00:00 14.8 6 Nordeste 8 Nordeste 0 -- -- 88
2021-02-04 03:00:00 15 4 Nordeste 8 Nordeste 0 -- -- 88
2021-02-04 02:00:00 15.1 3 Oeste 9 Oeste 0 -- -- 88
2021-02-04 01:00:00 15.6 5 Oeste 14 Oeste 0 -- -- 88
2021-02-04 00:00:00 16.1 13 Oeste 16 Sudoeste 0 -- -- 87
2021-02-03 23:00:00 16.3 5 Sudoeste 27 Oeste 0 -- -- 86
2021-02-03 22:00:00 16.5 13 Oeste 23 Oeste 0 -- -- 85
2021-02-03 21:00:00 16.9 16 Oeste 30 Oeste 0 -- -- 82
2021-02-03 20:00:00 17.7 23 Oeste 35 Oeste 0 -- -- 78
2021-02-03 19:00:00 17.9 19 Oeste 27 Oeste 0 -- -- 72
2021-02-03 18:00:00 18 17 Oeste 22 Oeste 18 -- -- 70
2021-02-03 17:00:00 17.8 10 Oeste 18 Sudoeste 0 -- -- 70
2021-02-03 16:00:00 18.2 14 Oeste 19 Oeste 0 -- -- 71
2021-02-03 15:00:00 17.7 8 Sudoeste 10 Oeste 0 -- -- 75
2021-02-03 14:00:00 17.7 4 Sudoeste 19 Oeste 0 -- -- 74
2021-02-03 13:00:00 16.5 17 Oeste 21 Oeste 0 -- -- 75
2021-02-03 12:00:00 17 4 Este 8 Sudoeste 0 -- -- 81
2021-02-03 11:00:00 15.8 5 Oeste 10 Oeste 0 -- -- 88
2021-02-03 10:00:00 14.5 7 Oeste 9 Oeste 0 -- -- 90
2021-02-03 09:00:00 13 3 Oeste 6 Oeste 0 -- -- 92
2021-02-03 08:00:00 12.1 0 Calma 3 Norte 0 -- -- 92
2021-02-03 07:00:00 12.7 0 Calma 4 Este 0 -- -- 92
2021-02-03 06:00:00 12.7 0 Calma 5 Norte 0 -- -- 91
2021-02-03 05:00:00 13.2 0 Calma 4 Nordeste 0 -- -- 91
2021-02-03 04:00:00 13.1 3 Nordeste 5 Nordeste 0 -- -- 90
2021-02-03 03:00:00 13.6 2 Oeste 5 Oeste 0 -- -- 89
2021-02-03 02:00:00 13.8 0 Calma 5 Oeste 0 -- -- 88
2021-02-03 01:00:00 14.5 3 Noroeste 12 Oeste 0 -- -- 87
2021-02-03 00:00:00 14.5 10 Noroeste 17 Oeste 0 -- -- 87
2021-02-02 23:00:00 15.2 4 Noroeste 6 Noroeste 0 -- -- 87
2021-02-02 22:00:00 15.7 0 Calma 8 Oeste 0 -- -- 86
2021-02-02 21:00:00 16.7 3 Oeste 8 Sudoeste 0 -- -- 84
2021-02-02 20:00:00 16.3 3 Oeste 5 Sur 0 -- -- 84
2021-02-02 19:00:00 17.2 6 Oeste 10 Sudoeste 0 -- -- 84
2021-02-02 18:00:00 19 9 Sudoeste 18 Sudoeste 0 -- -- 80
2021-02-02 17:00:00 19.3 11 Oeste 14 Oeste 0 -- -- 77
2021-02-02 16:00:00 19 11 Oeste 14 Oeste 0 -- -- 76
2021-02-02 15:00:00 17.8 8 Oeste 14 Sudoeste 0 -- -- 81
2021-02-02 14:00:00 17 14 Oeste 15 Oeste 0 -- -- 81
2021-02-02 13:00:00 16.5 13 Oeste 17 Sudoeste 0 -- -- 81
2021-02-02 12:00:00 17 10 Oeste 12 Oeste 0 -- -- 80
2021-02-02 11:00:00 17.3 6 Sudoeste 10 Sudoeste 0 -- -- 77
2021-02-02 10:00:00 18.1 0 Calma 6 Sudoeste 0 -- -- 74
2021-02-02 09:00:00 16.3 0 Calma 16 Sudoeste 0 -- -- 79
2021-02-02 08:00:00 14.5 8 Oeste 13 Noroeste 0 -- -- 78
2021-02-02 07:00:00 14.5 8 Oeste 22 Noroeste 0 -- -- 79
2021-02-02 06:00:00 15.8 11 Noroeste 23 Noroeste 0 -- -- 71
2021-02-02 05:00:00 15.7 11 Noroeste 19 Noroeste 0 -- -- 75
2021-02-02 04:00:00 14.9 7 Noroeste 22 Oeste 0 -- -- 83
2021-02-02 03:00:00 16.6 16 Noroeste 31 Noroeste 0 -- -- 71
2021-02-02 02:00:00 16.5 12 Noroeste 26 Noroeste 0 -- -- 74
2021-02-02 01:00:00 15.7 6 Sudoeste 13 Sur 0 -- -- 86
2021-02-02 00:00:00 15.1 4 Oeste 8 Norte 0 -- -- 85
2021-02-01 23:00:00 16.3 7 Sudoeste 16 Sudoeste 0 -- -- 83
2021-02-01 22:00:00 16.6 11 Sudoeste 21 Sudoeste 0 -- -- 81
2021-02-01 21:00:00 16.6 15 Oeste 31 Oeste 0 -- -- 82
2021-02-01 20:00:00 17.2 28 Oeste 37 Oeste 0 -- -- 80
2021-02-01 19:00:00 18 17 Oeste 32 Oeste 0 -- -- 76
2021-02-01 18:00:00 18.9 21 Oeste 50 Oeste 0 -- -- 71
2021-02-01 17:00:00 19.3 23 Oeste 48 Sudoeste 0 -- -- 71
2021-02-01 16:00:00 18.6 40 Sudoeste 54 Sudoeste 0 -- -- 76
2021-02-01 15:00:00 18.6 45 Sudoeste 55 Sudoeste 0 -- -- 76
2021-02-01 14:00:00 18.4 43 Sudoeste 55 Sudoeste 0 -- -- 79
2021-02-01 13:00:00 18.4 42 Sudoeste 49 Sudoeste 0 -- -- 79
2021-02-01 12:00:00 17.9 33 Sudoeste 38 Sudoeste 0 -- -- 80
2021-02-01 11:00:00 19 19 Oeste 39 Oeste 0 -- -- 75
2021-02-01 10:00:00 18 28 Oeste 46 Oeste 0 -- -- 81
2021-02-01 09:00:00 17.7 30 Oeste 44 Oeste 0 -- -- 81
2021-02-01 08:00:00 17.6 17 Oeste 28 Oeste 0 -- -- 82
2021-02-01 07:00:00 17.7 11 Oeste 42 Oeste 0 -- -- 82
2021-02-01 06:00:00 17.4 30 Oeste 40 Sudoeste 0 -- -- 87
2021-02-01 05:00:00 16.7 30 Oeste 49 Sudoeste 0 -- -- 91
2021-02-01 04:00:00 16.7 33 Oeste 45 Oeste 0 -- -- 92
2021-02-01 03:00:00 16.4 21 Oeste 43 Oeste 0 -- -- 91
2021-02-01 02:00:00 16.4 34 Oeste 51 Sudoeste 0 -- -- 91
2021-02-01 01:00:00 16.5 37 Oeste 47 Sudoeste 0 -- -- 90
2021-02-01 00:00:00 16.2 37 Sudoeste 55 Sudoeste 0 -- -- 90